Airfield :
LOGIN :

Register | Disclaimer

   EN    FR    IT 

 










Legend :    VFR   Marginal VFR   IFR   Intensive IFR   Very Intensive IFR
Visi :
Ceiling :
>= 8 km
>= 3000ft
5 to 8 km
1000 to 3000 ft
1500m to 5 km
500 to 1000 ft
800 to 1500m
200 to 500 ft
< 800m
< 200 ft
Symbols :   Thunderstorms  Fog  Heavy snow  Heavy precipitations  Wind > 20 kt
SIGMETs :     Misc.  Thunderstorms  Icing  Turbulence  Mountain Waves  Volcanic Ashes






- Airport Elevation : 779 ft
- IATA code : CMF


LFLB - Chambery / Aix-Les-Bains

CURRENT METAR :
  • 090500Z AUTO 19003KT CAVOK 16/14 Q1019 NOSIG

EXPIRED METARs :
  • 090430Z AUTO 16003KT CAVOK 16/14 Q1019 NOSIG
  • 090400Z AUTO VRB02KT CAVOK 16/14 Q1019 NOSIG
  • 090330Z AUTO VRB02KT CAVOK 16/14 Q1019 NOSIG
  • 090300Z AUTO 00000KT CAVOK 17/15 Q1019 NOSIG
  • 090230Z AUTO 00000KT CAVOK 18/15 Q1019 NOSIG

TAF TAF LFLB
Valid from the 09 at 00:00 until the 10 at 00:00 UTC


082300Z 0900/0924 36005KT CAVOK
TEMPO 0900/0910 VRB02KT
PROB30
TEMPO 0920/0923 VRB15G25KT -TSRA SCT090CB



MET'MAP, your aeronautical weather chart ! - Copyright ORBIFLY December 2007 - Disclaimer

ORBIFLY MET'MAP TEAM :

Programming & Development : Alexandra Zaïnal
Concept & original design : Baudouin d'Aumeries
Assistance for programming : Marc-Olivier Méhu
Technical & hardware support : Manuel Goepfert

Contact : metmap@orbifly.com




SOURCES & CREDITS :

   NOAA